Driftmaster — AEJH — position and weather

sailwx.info

Track history (hours):
 
Tides and Currents Weather Stations Pressure Air Temp Water Temp Dewpoint Dewpoint Depression Visibility Wind Speed Wind Dir Waves Ship Positions

Driftmaster

Last reported at 2018-Feb-15 20:10 UTC. Time now 2018-Feb-18 18:21 UTC.
Position N 40°41' W 074°04'.

Length 30 m; draft 3 m.

MMSI: 366999411.

Date/timePositionNaut miles runAvg speedWind from/ knotsBaromVisibWave heightAir tempDewpointWater temp
2018-Feb-15 20:10N 40°41' W 074°04'0 0.0
2018-Feb-15 20:00N 40°41' W 074°04'1 2.0
2018-Feb-15 19:30N 40°40' W 074°04'2 3.3
2018-Feb-15 19:00N 40°41' W 074°02'0 0.8
2018-Feb-15 18:30N 40°42' W 074°02'1 1.2
2018-Feb-15 18:00N 40°42' W 074°01'2 3.6
2018-Feb-15 17:30N 40°44' W 074°01'1 2.5
2018-Feb-15 16:59N 40°45' W 074°01'1 2.6
2018-Feb-15 16:30N 40°44' W 074°01'2 4.9
2018-Feb-15 16:00N 40°41' W 074°02'2 3.0
2018-Feb-15 15:30N 40°41' W 074°04'0 0.0
2018-Feb-14 20:00N 40°41' W 074°04'1 1.0
2018-Feb-14 19:30N 40°41' W 074°04'0 0.1
2018-Feb-14 19:00N 40°41' W 074°04'1 2.1
2018-Feb-14 18:30N 40°41' W 074°02'1 2.4
2018-Feb-14 18:00N 40°42' W 074°02'1 1.2
2018-Feb-14 17:30N 40°42' W 074°02'3 6.0
2018-Feb-14 17:00N 40°45' W 074°01'1 2.7
2018-Feb-14 16:30N 40°46' W 073°60'2 3.8
2018-Feb-14 16:00N 40°45' W 074°01'2 4.4
2018-Feb-14 15:30N 40°42' W 074°01'1 2.1
2018-Feb-14 15:00N 40°42' W 074°00'1 2.5
2018-Feb-14 14:30N 40°42' W 074°02'1 2.2
2018-Feb-14 14:00N 40°41' W 074°02'2 3.1
2018-Feb-14 13:30N 40°40' W 074°03'2 0.1
2018-Feb-13 20:03N 40°41' W 074°04'0 0.0
2018-Feb-13 20:00N 40°41' W 074°04'1 1.8
2018-Feb-13 19:31N 40°40' W 074°04'3 5.2
2018-Feb-13 19:00N 40°42' W 074°01'0 0.8
2018-Feb-13 18:31N 40°42' W 074°01'2 4.2
2018-Feb-13 18:00N 40°44' W 074°01'1 1.7
2018-Feb-13 17:30N 40°45' W 074°01'1 1.8
2018-Feb-13 17:00N 40°46' W 074°01'1 1.5
2018-Feb-13 16:30N 40°45' W 074°01'0 0.0
2018-Feb-13 16:00N 40°45' W 074°01'1 2.2
2018-Feb-13 15:31N 40°46' W 074°00'2 3.8
2018-Feb-13 15:01N 40°44' W 074°01'2 3.9
2018-Feb-13 14:31N 40°42' W 074°01'2 3.9
2018-Feb-13 14:01N 40°40' W 074°02'1 2.6
2018-Feb-13 13:31N 40°39' W 074°03'2 3.8
2018-Feb-13 13:01N 40°41' W 074°04'1 0.0
2018-Feb-12 20:08N 40°41' W 074°04'0 3.1
2018-Feb-12 20:00N 40°41' W 074°04'0 0.4
2018-Feb-12 19:30N 40°41' W 074°04'1 2.1
2018-Feb-12 19:00N 40°41' W 074°02'4 7.2
2018-Feb-12 18:30N 40°44' W 074°01'1 1.2
2018-Feb-12 18:00N 40°44' W 074°01'1 1.1
2018-Feb-12 17:30N 40°43' W 074°01'1 1.3
2018-Feb-12 17:00N 40°43' W 074°01'1 1.4
2018-Feb-12 16:30N 40°42' W 074°01'1 2.1
2018-Feb-12 16:00N 40°41' W 074°01'1 2.7
2018-Feb-12 15:30N 40°40' W 074°01'2 3.1
2018-Feb-12 15:00N 40°38' W 074°02'1 2.2
2018-Feb-12 14:30N 40°37' W 074°03'1 1.8
2018-Feb-12 14:00N 40°36' W 074°02'1 2.8
2018-Feb-12 13:30N 40°37' W 074°04'3 5.1
2018-Feb-12 13:00N 40°40' W 074°03'2 0.1
2018-Feb-11 17:17N 40°41' W 074°04'1 3.4
2018-Feb-11 17:00N 40°41' W 074°03'0 0.7
2018-Feb-11 16:30N 40°41' W 074°04'1 1.1
2018-Feb-11 15:57N 40°41' W 074°04'0 0.0
2018-Feb-11 15:27N 40°41' W 074°04'0 0.0
2018-Feb-11 15:00N 40°41' W 074°04'0 0.1
2018-Feb-11 14:30N 40°41' W 074°04'0 0.0
2018-Feb-11 14:00N 40°41' W 074°04'0 0.0
2018-Feb-11 13:30N 40°41' W 074°04'0 0.0
2018-Feb-10 19:25N 40°41' W 074°04'1 3.2
2018-Feb-10 19:00N 40°41' W 074°03'1 3.0
2018-Feb-10 18:30N 40°42' W 074°01'2 4.5
2018-Feb-10 18:00N 40°44' W 074°02'0 0.0
2018-Feb-10 17:29N 40°44' W 074°02'0 0.0
2018-Feb-10 17:00N 40°44' W 074°02'1 2.8
2018-Feb-10 16:30N 40°43' W 074°02'2 3.1
2018-Feb-10 16:00N 40°41' W 074°02'2 3.1
2018-Feb-10 15:30N 40°40' W 074°01'1 2.8
2018-Feb-10 15:00N 40°39' W 074°02'1 3.0
2018-Feb-10 14:30N 40°38' W 074°03'1 2.6
2018-Feb-10 14:00N 40°39' W 074°03'2 4.5
2018-Feb-10 13:30N 40°41' W 074°04'0 0.0
2018-Feb-09 19:30N 40°41' W 074°04'1 0.0
2018-Feb-08 20:00N 40°41' W 074°04'1 2.2
2018-Feb-08 19:30N 40°41' W 074°03'4 3.6
2018-Feb-08 18:30N 40°37' W 074°03'1 1.8
2018-Feb-08 18:00N 40°38' W 074°03'1 1.0
2018-Feb-08 17:00N 40°39' W 074°02'3 0.3
2018-Feb-08 07:00N 40°41' W 074°04'0 0.0
2018-Feb-08 06:30N 40°41' W 074°04'0 0.0
2018-Feb-08 06:00N 40°41' W 074°04'0 0.0
2018-Feb-08 03:30N 40°41' W 074°04'0 0.0
2018-Feb-08 02:30N 40°41' W 074°04'0 0.0
2018-Feb-08 01:30N 40°41' W 074°04'0 0.0
2018-Feb-08 01:00N 40°41' W 074°04'0 0.0
2018-Feb-08 00:30N 40°41' W 074°04'0 0.0
2018-Feb-08 00:00N 40°41' W 074°04'0 0.0
2018-Feb-07 23:30N 40°41' W 074°04'0 0.0
2018-Feb-07 23:00N 40°41' W 074°04'0 0.0
2018-Feb-07 22:30N 40°41' W 074°04'0 0.0
2018-Feb-07 22:00N 40°41' W 074°04'0 0.0
2018-Feb-07 21:31N 40°41' W 074°04'0 0.0
2018-Feb-07 09:30N 40°41' W 074°04'0 0.0
2018-Feb-07 09:00N 40°41' W 074°04'0 0.0
2018-Feb-07 08:30N 40°41' W 074°04'0 0.0
2018-Feb-07 08:00N 40°41' W 074°04'0 0.0
2018-Feb-07 07:30N 40°41' W 074°04'0 0.0
2018-Feb-07 07:00N 40°41' W 074°04'0 0.0
2018-Feb-07 06:28N 40°41' W 074°04'0 0.0
2018-Feb-07 06:00N 40°41' W 074°04'0 0.0
2018-Feb-07 05:30N 40°41' W 074°04'0 0.0
2018-Feb-07 05:00N 40°41' W 074°04'0 0.0
2018-Feb-07 04:30N 40°41' W 074°04'0 0.0
2018-Feb-07 04:00N 40°41' W 074°04'0 0.0
2018-Feb-07 03:30N 40°41' W 074°04'0 0.0
2018-Feb-07 03:00N 40°41' W 074°04'0 0.0
2018-Feb-07 02:29N 40°41' W 074°04'0 0.0
2018-Feb-07 02:00N 40°41' W 074°04'0 0.0
2018-Feb-07 01:29N 40°41' W 074°04'0 0.0
2018-Feb-07 01:00N 40°41' W 074°04'0 0.0
2018-Feb-07 00:30N 40°41' W 074°04'0 0.0
2018-Feb-07 00:00N 40°41' W 074°04'0 0.0
2018-Feb-06 23:30N 40°41' W 074°04'0 0.0
2018-Feb-06 23:00N 40°41' W 074°04'0 0.0
2018-Feb-06 22:30N 40°41' W 074°04'0 0.0
2018-Feb-06 22:00N 40°41' W 074°04'0 0.0
2018-Feb-06 21:30N 40°41' W 074°04'0 0.0
2018-Feb-06 21:00N 40°41' W 074°04'0 0.0
2018-Feb-06 20:30N 40°41' W 074°04'0 0.0
2018-Feb-06 20:00N 40°41' W 074°04'0 0.0
2018-Feb-06 19:30N 40°41' W 074°04'0 0.0
2018-Feb-06 19:00N 40°41' W 074°04'0 0.0
2018-Feb-06 18:30N 40°41' W 074°04'0 0.0
2018-Feb-06 17:59N 40°41' W 074°04'0 0.0
2018-Feb-06 17:30N 40°41' W 074°04'0 0.0
2018-Feb-06 17:00N 40°41' W 074°04'0 0.0
2018-Feb-06 16:30N 40°41' W 074°04'  
Track history (hours):
 
Tides and Currents Weather Stations Pressure Air Temp Water Temp Dewpoint Dewpoint Depression Visibility Wind Speed Wind Dir Waves Ship Positions

Driftmaster

Last reported at 2018-Feb-15 20:10 UTC. Time now 2018-Feb-18 18:21 UTC.
Position N 40°41' W 074°04'.

Length 30 m; draft 3 m.

MMSI: 366999411.

Date/timePositionNaut miles runAvg speedWind from/ knotsBaromVisibWave heightAir tempDewpointWater temp
2018-Feb-15 20:10N 40°41' W 074°04'0 0.0
2018-Feb-15 20:00N 40°41' W 074°04'1 2.0
2018-Feb-15 19:30N 40°40' W 074°04'2 3.3
2018-Feb-15 19:00N 40°41' W 074°02'0 0.8
2018-Feb-15 18:30N 40°42' W 074°02'1 1.2
2018-Feb-15 18:00N 40°42' W 074°01'2 3.6
2018-Feb-15 17:30N 40°44' W 074°01'1 2.5
2018-Feb-15 16:59N 40°45' W 074°01'1 2.6
2018-Feb-15 16:30N 40°44' W 074°01'2 4.9
2018-Feb-15 16:00N 40°41' W 074°02'2 3.0
2018-Feb-15 15:30N 40°41' W 074°04'0 0.0
2018-Feb-14 20:00N 40°41' W 074°04'1 1.0
2018-Feb-14 19:30N 40°41' W 074°04'0 0.1
2018-Feb-14 19:00N 40°41' W 074°04'1 2.1
2018-Feb-14 18:30N 40°41' W 074°02'1 2.4
2018-Feb-14 18:00N 40°42' W 074°02'1 1.2
2018-Feb-14 17:30N 40°42' W 074°02'3 6.0
2018-Feb-14 17:00N 40°45' W 074°01'1 2.7
2018-Feb-14 16:30N 40°46' W 073°60'2 3.8
2018-Feb-14 16:00N 40°45' W 074°01'2 4.4
2018-Feb-14 15:30N 40°42' W 074°01'1 2.1
2018-Feb-14 15:00N 40°42' W 074°00'1 2.5
2018-Feb-14 14:30N 40°42' W 074°02'1 2.2
2018-Feb-14 14:00N 40°41' W 074°02'2 3.1
2018-Feb-14 13:30N 40°40' W 074°03'2 0.1
2018-Feb-13 20:03N 40°41' W 074°04'0 0.0
2018-Feb-13 20:00N 40°41' W 074°04'1 1.8
2018-Feb-13 19:31N 40°40' W 074°04'3 5.2
2018-Feb-13 19:00N 40°42' W 074°01'0 0.8
2018-Feb-13 18:31N 40°42' W 074°01'2 4.2
2018-Feb-13 18:00N 40°44' W 074°01'1 1.7
2018-Feb-13 17:30N 40°45' W 074°01'1 1.8
2018-Feb-13 17:00N 40°46' W 074°01'1 1.5
2018-Feb-13 16:30N 40°45' W 074°01'0 0.0
2018-Feb-13 16:00N 40°45' W 074°01'1 2.2
2018-Feb-13 15:31N 40°46' W 074°00'2 3.8
2018-Feb-13 15:01N 40°44' W 074°01'2 3.9
2018-Feb-13 14:31N 40°42' W 074°01'2 3.9
2018-Feb-13 14:01N 40°40' W 074°02'1 2.6
2018-Feb-13 13:31N 40°39' W 074°03'2 3.8
2018-Feb-13 13:01N 40°41' W 074°04'1 0.0
2018-Feb-12 20:08N 40°41' W 074°04'0 3.1
2018-Feb-12 20:00N 40°41' W 074°04'0 0.4
2018-Feb-12 19:30N 40°41' W 074°04'1 2.1
2018-Feb-12 19:00N 40°41' W 074°02'4 7.2
2018-Feb-12 18:30N 40°44' W 074°01'1 1.2
2018-Feb-12 18:00N 40°44' W 074°01'1 1.1
2018-Feb-12 17:30N 40°43' W 074°01'1 1.3
2018-Feb-12 17:00N 40°43' W 074°01'1 1.4
2018-Feb-12 16:30N 40°42' W 074°01'1 2.1
2018-Feb-12 16:00N 40°41' W 074°01'1 2.7
2018-Feb-12 15:30N 40°40' W 074°01'2 3.1
2018-Feb-12 15:00N 40°38' W 074°02'1 2.2
2018-Feb-12 14:30N 40°37' W 074°03'1 1.8
2018-Feb-12 14:00N 40°36' W 074°02'1 2.8
2018-Feb-12 13:30N 40°37' W 074°04'3 5.1
2018-Feb-12 13:00N 40°40' W 074°03'2 0.1
2018-Feb-11 17:17N 40°41' W 074°04'1 3.4
2018-Feb-11 17:00N 40°41' W 074°03'0 0.7
2018-Feb-11 16:30N 40°41' W 074°04'1 1.1
2018-Feb-11 15:57N 40°41' W 074°04'0 0.0
2018-Feb-11 15:27N 40°41' W 074°04'0 0.0
2018-Feb-11 15:00N 40°41' W 074°04'0 0.1
2018-Feb-11 14:30N 40°41' W 074°04'0 0.0
2018-Feb-11 14:00N 40°41' W 074°04'0 0.0
2018-Feb-11 13:30N 40°41' W 074°04'0 0.0
2018-Feb-10 19:25N 40°41' W 074°04'1 3.2
2018-Feb-10 19:00N 40°41' W 074°03'1 3.0
2018-Feb-10 18:30N 40°42' W 074°01'2 4.5
2018-Feb-10 18:00N 40°44' W 074°02'0 0.0
2018-Feb-10 17:29N 40°44' W 074°02'0 0.0
2018-Feb-10 17:00N 40°44' W 074°02'1 2.8
2018-Feb-10 16:30N 40°43' W 074°02'2 3.1
2018-Feb-10 16:00N 40°41' W 074°02'2 3.1
2018-Feb-10 15:30N 40°40' W 074°01'1 2.8
2018-Feb-10 15:00N 40°39' W 074°02'1 3.0
2018-Feb-10 14:30N 40°38' W 074°03'1 2.6
2018-Feb-10 14:00N 40°39' W 074°03'2 4.5
2018-Feb-10 13:30N 40°41' W 074°04'0 0.0
2018-Feb-09 19:30N 40°41' W 074°04'1 0.0
2018-Feb-08 20:00N 40°41' W 074°04'1 2.2
2018-Feb-08 19:30N 40°41' W 074°03'4 3.6
2018-Feb-08 18:30N 40°37' W 074°03'1 1.8
2018-Feb-08 18:00N 40°38' W 074°03'1 1.0
2018-Feb-08 17:00N 40°39' W 074°02'3 0.3
2018-Feb-08 07:00N 40°41' W 074°04'0 0.0
2018-Feb-08 06:30N 40°41' W 074°04'0 0.0
2018-Feb-08 06:00N 40°41' W 074°04'0 0.0
2018-Feb-08 03:30N 40°41' W 074°04'0 0.0
2018-Feb-08 02:30N 40°41' W 074°04'0 0.0
2018-Feb-08 01:30N 40°41' W 074°04'0 0.0
2018-Feb-08 01:00N 40°41' W 074°04'0 0.0
2018-Feb-08 00:30N 40°41' W 074°04'0 0.0
2018-Feb-08 00:00N 40°41' W 074°04'0 0.0
2018-Feb-07 23:30N 40°41' W 074°04'0 0.0
2018-Feb-07 23:00N 40°41' W 074°04'0 0.0
2018-Feb-07 22:30N 40°41' W 074°04'0 0.0
2018-Feb-07 22:00N 40°41' W 074°04'0 0.0
2018-Feb-07 21:31N 40°41' W 074°04'0 0.0
2018-Feb-07 09:30N 40°41' W 074°04'0 0.0
2018-Feb-07 09:00N 40°41' W 074°04'0 0.0
2018-Feb-07 08:30N 40°41' W 074°04'0 0.0
2018-Feb-07 08:00N 40°41' W 074°04'0 0.0
2018-Feb-07 07:30N 40°41' W 074°04'0 0.0
2018-Feb-07 07:00N 40°41' W 074°04'0 0.0
2018-Feb-07 06:28N 40°41' W 074°04'0 0.0
2018-Feb-07 06:00N 40°41' W 074°04'0 0.0
2018-Feb-07 05:30N 40°41' W 074°04'0 0.0
2018-Feb-07 05:00N 40°41' W 074°04'0 0.0
2018-Feb-07 04:30N 40°41' W 074°04'0 0.0
2018-Feb-07 04:00N 40°41' W 074°04'0 0.0
2018-Feb-07 03:30N 40°41' W 074°04'0 0.0
2018-Feb-07 03:00N 40°41' W 074°04'0 0.0
2018-Feb-07 02:29N 40°41' W 074°04'0 0.0
2018-Feb-07 02:00N 40°41' W 074°04'0 0.0
2018-Feb-07 01:29N 40°41' W 074°04'0 0.0
2018-Feb-07 01:00N 40°41' W 074°04'0 0.0
2018-Feb-07 00:30N 40°41' W 074°04'0 0.0
2018-Feb-07 00:00N 40°41' W 074°04'0 0.0
2018-Feb-06 23:30N 40°41' W 074°04'0 0.0
2018-Feb-06 23:00N 40°41' W 074°04'0 0.0
2018-Feb-06 22:30N 40°41' W 074°04'0 0.0
2018-Feb-06 22:00N 40°41' W 074°04'0 0.0
2018-Feb-06 21:30N 40°41' W 074°04'0 0.0
2018-Feb-06 21:00N 40°41' W 074°04'0 0.0
2018-Feb-06 20:30N 40°41' W 074°04'0 0.0
2018-Feb-06 20:00N 40°41' W 074°04'0 0.0
2018-Feb-06 19:30N 40°41' W 074°04'0 0.0
2018-Feb-06 19:00N 40°41' W 074°04'0 0.0
2018-Feb-06 18:30N 40°41' W 074°04'0 0.0
2018-Feb-06 17:59N 40°41' W 074°04'0 0.0
2018-Feb-06 17:30N 40°41' W 074°04'0 0.0
2018-Feb-06 17:00N 40°41' W 074°04'0 0.0
2018-Feb-06 16:30N 40°41' W 074°04'  

Dump ship's entire track history